createdAt,value
2019-03-10T00:03:47.284Z,9.92
2019-03-10T00:08:44.284Z,9.69
2019-03-10T00:13:41.315Z,9.96
2019-03-10T00:18:38.465Z,9.88
2019-03-10T00:23:35.486Z,10.00
2019-03-10T00:28:33.359Z,10.15
2019-03-10T00:33:30.447Z,10.32
2019-03-10T00:38:36.541Z,10.17
2019-03-10T00:44:18.824Z,10.20
2019-03-10T00:49:36.690Z,10.39
2019-03-10T00:54:33.692Z,10.41
2019-03-10T00:59:30.896Z,10.17
2019-03-10T01:04:27.959Z,10.43
2019-03-10T01:09:24.939Z,10.51
2019-03-10T01:14:25.489Z,10.75
2019-03-10T01:19:23.084Z,10.60
2019-03-10T01:24:20.123Z,10.68
2019-03-10T01:29:17.223Z,10.50
2019-03-10T01:34:50.143Z,10.47
2019-03-10T01:39:47.331Z,10.47
2019-03-10T01:44:44.327Z,10.58
2019-03-10T01:49:41.396Z,10.36
2019-03-10T01:54:38.502Z,10.51
2019-03-10T01:59:35.550Z,10.51
2019-03-10T02:04:32.636Z,10.30
2019-03-10T02:09:29.761Z,10.40
2019-03-10T02:14:26.859Z,10.32
2019-03-10T02:19:26.819Z,10.29
2019-03-10T02:24:24.327Z,10.05
2019-03-10T02:29:24.268Z,10.13
2019-03-10T02:34:21.948Z,9.93
2019-03-10T02:39:19.162Z,9.97
2019-03-10T02:44:16.471Z,8.27
2019-03-10T02:49:13.564Z,6.98
2019-03-10T02:54:10.919Z,6.40
2019-03-10T02:59:09.954Z,6.22
2019-03-10T03:04:07.251Z,6.39
2019-03-10T03:09:05.508Z,6.34
2019-03-10T03:14:02.673Z,6.36
2019-03-10T03:18:59.954Z,6.30
2019-03-10T03:23:57.631Z,6.43
2019-03-10T03:28:54.691Z,6.53
2019-03-10T03:33:52.055Z,6.62
2019-03-10T03:38:57.261Z,6.47
2019-03-10T03:43:54.459Z,6.53
2019-03-10T03:48:51.731Z,6.52
2019-03-10T03:53:48.942Z,6.66
2019-03-10T03:58:46.172Z,6.42
2019-03-10T04:03:43.362Z,6.51
2019-03-10T04:08:40.827Z,6.49
2019-03-10T04:13:39.854Z,6.67
2019-03-10T04:18:37.257Z,6.78
2019-03-10T04:23:34.401Z,6.88
2019-03-10T04:28:32.487Z,6.85
2019-03-10T04:33:29.602Z,6.57
2019-03-10T04:38:26.763Z,6.56
2019-03-10T04:43:23.918Z,6.42
2019-03-10T04:48:21.557Z,6.37
2019-03-10T04:53:18.634Z,6.27
2019-03-10T04:58:17.351Z,6.20
2019-03-10T05:03:14.515Z,6.09
2019-03-10T05:08:11.721Z,6.12
2019-03-10T05:13:08.904Z,6.11
2019-03-10T05:18:06.108Z,6.26
2019-03-10T05:23:27.366Z,6.29
2019-03-10T05:28:24.485Z,6.43
2019-03-10T05:33:21.853Z,6.34
2019-03-10T05:38:20.969Z,6.43
2019-03-10T05:43:18.134Z,6.60
2019-03-10T05:48:15.377Z,6.67
2019-03-10T05:53:12.522Z,6.69
2019-03-10T05:58:09.698Z,7.46
2019-03-10T06:03:08.714Z,7.40
2019-03-10T06:08:05.935Z,7.67
2019-03-10T06:13:03.255Z,8.41
2019-03-10T06:18:00.621Z,8.79
2019-03-10T06:22:58.743Z,8.84
2019-03-10T06:27:55.937Z,8.83
2019-03-10T06:32:53.104Z,8.88
2019-03-10T06:37:50.359Z,9.93
2019-03-10T06:42:47.566Z,10.84
2019-03-10T06:47:44.782Z,10.64
2019-03-10T06:52:41.971Z,11.11
2019-03-10T06:57:39.262Z,11.86
2019-03-10T07:02:36.438Z,12.55
2019-03-10T07:07:33.731Z,13.17
2019-03-10T07:12:30.944Z,13.87
2019-03-10T07:17:28.242Z,12.97
2019-03-10T07:22:25.512Z,11.86
2019-03-10T07:27:24.542Z,11.20
2019-03-10T07:32:41.811Z,10.78
2019-03-10T07:37:40.750Z,10.14
2019-03-10T07:42:48.720Z,9.89
2019-03-10T07:47:48.558Z,9.85
2019-03-10T07:53:04.429Z,10.03
2019-03-10T07:58:19.961Z,10.16
2019-03-10T08:03:18.993Z,10.10
2019-03-10T08:08:24.285Z,10.69
2019-03-10T08:13:27.640Z,11.27
2019-03-10T08:18:26.649Z,11.74
2019-03-10T08:23:34.548Z,12.37
2019-03-10T08:28:37.155Z,12.42
2019-03-10T08:33:36.156Z,12.96
2019-03-10T08:38:33.406Z,13.27
2019-03-10T08:43:38.736Z,13.71
2019-03-10T08:48:43.601Z,14.36
2019-03-10T08:53:51.457Z,14.42
2019-03-10T08:58:58.643Z,15.18
2019-03-10T09:04:01.758Z,15.69
2019-03-10T09:09:16.894Z,15.86
2019-03-10T09:14:32.166Z,15.85
2019-03-10T09:19:32.249Z,15.97
2019-03-10T09:24:34.050Z,15.88
2019-03-10T09:29:51.194Z,15.73
2019-03-10T09:34:50.153Z,16.14
2019-03-10T09:39:51.940Z,16.40
2019-03-10T09:45:06.642Z,16.26
2019-03-10T09:50:12.461Z,16.02
2019-03-10T09:55:12.336Z,16.39
2019-03-10T10:00:17.462Z,15.97
2019-03-10T10:05:33.110Z,16.18
2019-03-10T10:10:42.252Z,16.59
2019-03-10T10:15:47.289Z,16.74
2019-03-10T10:20:58.686Z,16.77
2019-03-10T10:26:06.838Z,17.05
2019-03-10T10:31:09.571Z,17.27
2019-03-10T10:36:06.739Z,16.99
2019-03-10T10:41:06.817Z,16.50
2019-03-10T10:46:31.013Z,15.86
2019-03-10T10:51:32.962Z,15.65
2019-03-10T10:56:50.689Z,16.00
2019-03-10T11:01:52.462Z,16.02
2019-03-10T11:06:53.399Z,15.95
2019-03-10T11:11:55.162Z,15.65
2019-03-10T11:16:52.082Z,15.49
2019-03-10T11:21:49.254Z,15.26
2019-03-10T11:26:57.449Z,15.11
2019-03-10T11:32:13.412Z,15.22
2019-03-10T11:37:27.523Z,15.16
2019-03-10T11:42:32.589Z,15.14
2019-03-10T11:47:48.345Z,15.05
2019-03-10T11:52:50.460Z,14.60
2019-03-10T11:57:55.443Z,14.63
2019-03-10T12:03:00.453Z,14.60
2019-03-10T12:08:11.645Z,14.48
2019-03-10T12:13:08.726Z,14.04
2019-03-10T12:18:05.963Z,14.25
2019-03-10T12:23:03.218Z,14.20
2019-03-10T12:28:02.115Z,13.90
2019-03-10T12:32:59.280Z,14.07
2019-03-10T12:37:56.471Z,13.77
2019-03-10T12:42:53.649Z,13.59
2019-03-10T12:47:50.895Z,13.09
2019-03-10T12:52:48.059Z,13.10
2019-03-10T12:57:45.202Z,13.04
2019-03-10T13:02:42.297Z,12.76
2019-03-10T13:07:39.462Z,12.34
2019-03-10T13:12:36.537Z,12.51
2019-03-10T13:17:33.884Z,12.07
2019-03-10T13:22:30.942Z,12.34
2019-03-10T13:27:28.253Z,12.37
2019-03-10T13:32:25.494Z,12.48
2019-03-10T13:37:22.591Z,12.50
2019-03-10T13:42:19.672Z,12.38
2019-03-10T13:47:17.000Z,12.18
2019-03-10T13:52:14.231Z,12.52
2019-03-10T13:57:11.346Z,12.63
2019-03-10T14:02:08.343Z,12.25
2019-03-10T14:07:05.378Z,11.87
2019-03-10T14:12:02.535Z,12.01
2019-03-10T14:16:59.646Z,11.51
2019-03-10T14:21:56.726Z,11.52
2019-03-10T14:26:54.216Z,11.40
2019-03-10T14:31:51.260Z,11.26
2019-03-10T14:36:48.248Z,10.91
2019-03-10T14:41:45.272Z,11.07
2019-03-10T14:46:45.918Z,10.78
2019-03-10T14:51:42.960Z,10.44
2019-03-10T14:56:40.957Z,10.39
2019-03-10T15:01:38.004Z,10.32
2019-03-10T15:06:38.394Z,10.56
2019-03-10T15:11:34.037Z,9.91
2019-03-10T15:16:31.031Z,10.13
2019-03-10T15:21:28.019Z,10.08
2019-03-10T15:26:25.181Z,9.73
2019-03-10T15:31:22.231Z,9.76
2019-03-10T15:36:20.994Z,9.71
2019-03-10T15:41:18.142Z,9.66
2019-03-10T15:46:15.390Z,9.60
2019-03-10T15:51:12.433Z,9.46
2019-03-10T15:56:09.518Z,9.29
2019-03-10T16:01:07.419Z,9.16
2019-03-10T16:06:04.431Z,9.08
2019-03-10T16:11:01.409Z,9.13
2019-03-10T16:15:58.503Z,9.25
2019-03-10T16:20:55.482Z,9.12
2019-03-10T16:25:52.550Z,9.20
2019-03-10T16:30:49.645Z,9.13
2019-03-10T16:35:46.777Z,9.21
2019-03-10T16:40:43.760Z,9.10
2019-03-10T16:45:40.861Z,8.89
2019-03-10T16:50:37.951Z,9.16
2019-03-10T16:55:35.048Z,9.10
2019-03-10T17:00:32.266Z,9.01
2019-03-10T17:05:30.306Z,9.10
2019-03-10T17:10:27.325Z,9.32
2019-03-10T17:15:25.200Z,9.52
2019-03-10T17:20:22.278Z,9.55
2019-03-10T17:25:20.069Z,9.45
2019-03-10T17:30:25.279Z,9.51
2019-03-10T17:35:22.510Z,9.40
2019-03-10T17:40:24.449Z,9.67
2019-03-10T17:45:25.686Z,9.43
2019-03-10T17:50:23.075Z,9.39
2019-03-10T17:55:21.481Z,9.14
2019-03-10T18:00:21.496Z,9.38
2019-03-10T18:05:18.868Z,9.34
2019-03-10T18:10:19.794Z,9.54
2019-03-10T18:15:18.023Z,9.09
2019-03-10T18:20:23.394Z,9.16
2019-03-10T18:25:20.623Z,9.32
2019-03-10T18:30:19.885Z,8.79
2019-03-10T18:35:17.176Z,9.13
2019-03-10T18:40:20.014Z,9.24
2019-03-10T18:45:18.347Z,8.96
2019-03-10T18:50:22.918Z,9.12
2019-03-10T18:55:20.394Z,9.21
2019-03-10T19:00:22.644Z,9.32
2019-03-10T19:05:19.685Z,9.24
2019-03-10T19:10:17.748Z,9.52
2019-03-10T19:15:22.790Z,9.82
2019-03-10T19:20:19.853Z,9.74
2019-03-10T19:25:16.968Z,9.76
2019-03-10T19:30:20.253Z,9.80
2019-03-10T19:35:17.387Z,9.89
2019-03-10T19:40:20.655Z,9.87
2019-03-10T19:45:19.301Z,9.89
2019-03-10T19:50:27.071Z,9.78
2019-03-10T19:55:23.773Z,10.02
2019-03-10T20:00:21.713Z,10.09
2019-03-10T20:05:18.973Z,10.21
2019-03-10T20:10:22.777Z,10.06
2019-03-10T20:15:24.020Z,10.05
2019-03-10T20:20:34.130Z,10.23
2019-03-10T20:25:31.215Z,10.23
2019-03-10T20:30:28.236Z,10.28
2019-03-10T20:35:25.359Z,10.09
2019-03-10T20:40:27.671Z,9.93
2019-03-10T20:45:24.950Z,10.23
2019-03-10T20:50:22.145Z,10.04
2019-03-10T20:55:19.209Z,10.06
2019-03-10T21:00:29.413Z,10.14
2019-03-10T21:05:26.350Z,10.18
2019-03-10T21:10:26.165Z,10.03
2019-03-10T21:15:26.057Z,10.31
2019-03-10T21:20:24.616Z,10.38
2019-03-10T21:25:30.904Z,10.39
2019-03-10T21:30:32.463Z,10.31
2019-03-10T21:35:29.542Z,10.24
2019-03-10T21:40:29.626Z,10.37
2019-03-10T21:45:28.386Z,10.34
2019-03-10T21:50:25.378Z,10.39
2019-03-10T21:55:22.331Z,10.35
2019-03-10T22:00:19.814Z,9.83
2019-03-10T22:05:18.696Z,10.35
2019-03-10T22:10:26.383Z,10.52
2019-03-10T22:15:18.193Z,10.48
2019-03-10T22:20:19.241Z,10.37
2019-03-10T22:25:16.390Z,10.53
2019-03-10T22:30:21.447Z,10.52
2019-03-10T22:35:18.508Z,10.41
2019-03-10T22:40:18.863Z,10.44
2019-03-10T22:45:18.801Z,10.48
2019-03-10T22:50:16.593Z,10.43
2019-03-10T22:55:14.634Z,10.40
2019-03-10T23:00:26.076Z,10.45
2019-03-10T23:05:23.045Z,10.46
2019-03-10T23:10:20.068Z,10.52
2019-03-10T23:15:17.075Z,10.49
2019-03-10T23:20:15.254Z,10.40
2019-03-10T23:25:12.371Z,10.51
2019-03-10T23:30:18.000Z,10.53
2019-03-10T23:35:15.081Z,10.65
2019-03-10T23:40:15.332Z,10.59
2019-03-10T23:45:16.754Z,10.57
2019-03-10T23:50:16.788Z,10.06
2019-03-10T23:55:14.151Z,9.75
